Decoded Metar for LEBG (BURGOS in SPAIN) (IATA:N/A) | Meteo·Mobile Aviation Weather
aviador You're here:

LEBG Decoded Metar

BURGOS in SPAIN
Report Time2018-08-22 05:00:00
UTC Time2018-08-22 05:37:36
Flight Rules vfr VFR
WindCalm
Visibility9999 m
Phenomena:N/A
Clouds:N/A
Expected CloudBase > 800 ft AGL from Temp-Dew spread
CeilingNone
Temp12°C (ISA +3)
Dew Point10°C (88% RH)
QNH1019 hPa
Density Alt3,228 ft
Elevation2,923 ft
Report Wrong Elevation
Raw Report
METAR LEBG 220500Z 00000KT CAVOK 12/10 Q1019=

Extra information for LEBG:More info

Metar Taf Metar & Taf Last 4 Metars F.Rules Stats Wind Profile Meteogram Temp Stats Airport Information Weather charts Add Link Nearby VenuesMetar ALERT Operation Metar Decoded Social comments